sensor_id;sensor_type;location;lat;lon;timestamp;P1;durP1;ratioP1;P2;durP2;ratioP2
28838;SDS011;15971;50.772;6.100;2022-09-17T00:00:46;6.43;;;3.15;;
28838;SDS011;15971;50.772;6.100;2022-09-17T00:03:15;9.48;;;2.88;;
28838;SDS011;15971;50.772;6.100;2022-09-17T00:05:41;6.60;;;2.30;;
28838;SDS011;15971;50.772;6.100;2022-09-17T00:08:08;8.85;;;2.85;;
28838;SDS011;15971;50.772;6.100;2022-09-17T00:10:38;8.68;;;2.83;;
28838;SDS011;15971;50.772;6.100;2022-09-17T00:13:06;8.38;;;3.08;;
28838;SDS011;15971;50.772;6.100;2022-09-17T00:15:37;10.15;;;2.42;;
28838;SDS011;15971;50.772;6.100;2022-09-17T00:18:07;8.82;;;2.55;;
28838;SDS011;15971;50.772;6.100;2022-09-17T00:20:40;9.95;;;2.75;;
28838;SDS011;15971;50.772;6.100;2022-09-17T00:23:07;10.25;;;2.65;;
28838;SDS011;15971;50.772;6.100;2022-09-17T00:25:36;7.25;;;3.28;;
28838;SDS011;15971;50.772;6.100;2022-09-17T00:28:03;13.30;;;4.07;;
28838;SDS011;15971;50.772;6.100;2022-09-17T00:30:28;10.50;;;2.42;;
28838;SDS011;15971;50.772;6.100;2022-09-17T00:32:54;8.00;;;2.20;;
28838;SDS011;15971;50.772;6.100;2022-09-17T00:35:24;7.55;;;2.45;;
28838;SDS011;15971;50.772;6.100;2022-09-17T00:37:50;10.50;;;3.00;;
28838;SDS011;15971;50.772;6.100;2022-09-17T00:40:16;7.25;;;2.35;;
28838;SDS011;15971;50.772;6.100;2022-09-17T00:42:42;4.90;;;2.15;;
28838;SDS011;15971;50.772;6.100;2022-09-17T00:45:09;4.07;;;2.63;;
28838;SDS011;15971;50.772;6.100;2022-09-17T00:47:37;4.85;;;2.65;;
28838;SDS011;15971;50.772;6.100;2022-09-17T00:50:26;9.25;;;2.28;;
28838;SDS011;15971;50.772;6.100;2022-09-17T00:53:19;5.43;;;1.98;;
28838;SDS011;15971;50.772;6.100;2022-09-17T00:55:47;11.65;;;2.10;;
28838;SDS011;15971;50.772;6.100;2022-09-17T00:58:41;5.65;;;1.58;;
28838;SDS011;15971;50.772;6.100;2022-09-17T01:01:07;5.30;;;2.10;;
28838;SDS011;15971;50.772;6.100;2022-09-17T01:03:32;8.38;;;2.80;;
28838;SDS011;15971;50.772;6.100;2022-09-17T01:06:07;4.72;;;1.88;;
28838;SDS011;15971;50.772;6.100;2022-09-17T01:08:54;7.30;;;2.20;;
28838;SDS011;15971;50.772;6.100;2022-09-17T01:17:01;10.93;;;2.70;;
28838;SDS011;15971;50.772;6.100;2022-09-17T01:22:17;8.52;;;2.95;;
28838;SDS011;15971;50.772;6.100;2022-09-17T01:27:46;8.77;;;2.80;;
28838;SDS011;15971;50.772;6.100;2022-09-17T01:33:38;9.48;;;3.50;;
28838;SDS011;15971;50.772;6.100;2022-09-17T01:38:54;11.40;;;2.55;;
28838;SDS011;15971;50.772;6.100;2022-09-17T01:41:44;4.55;;;2.28;;
28838;SDS011;15971;50.772;6.100;2022-09-17T01:44:34;7.13;;;2.17;;
28838;SDS011;15971;50.772;6.100;2022-09-17T01:47:12;9.75;;;3.17;;
28838;SDS011;15971;50.772;6.100;2022-09-17T01:50:07;9.82;;;2.60;;
28838;SDS011;15971;50.772;6.100;2022-09-17T01:52:37;10.00;;;2.58;;
28838;SDS011;15971;50.772;6.100;2022-09-17T01:55:07;6.20;;;2.78;;
28838;SDS011;15971;50.772;6.100;2022-09-17T01:57:35;9.63;;;3.65;;
28838;SDS011;15971;50.772;6.100;2022-09-17T02:00:09;14.38;;;3.50;;
28838;SDS011;15971;50.772;6.100;2022-09-17T02:02:49;10.43;;;3.42;;
28838;SDS011;15971;50.772;6.100;2022-09-17T02:05:28;13.93;;;3.13;;
28838;SDS011;15971;50.772;6.100;2022-09-17T02:07:57;15.98;;;4.05;;
28838;SDS011;15971;50.772;6.100;2022-09-17T02:10:41;12.95;;;3.08;;
28838;SDS011;15971;50.772;6.100;2022-09-17T02:13:12;12.93;;;3.58;;
28838;SDS011;15971;50.772;6.100;2022-09-17T02:15:48;12.73;;;3.13;;
28838;SDS011;15971;50.772;6.100;2022-09-17T02:18:30;8.43;;;3.38;;
28838;SDS011;15971;50.772;6.100;2022-09-17T02:21:23;12.75;;;3.58;;
28838;SDS011;15971;50.772;6.100;2022-09-17T02:26:43;15.07;;;3.45;;
28838;SDS011;15971;50.772;6.100;2022-09-17T02:29:36;17.42;;;3.50;;
28838;SDS011;15971;50.772;6.100;2022-09-17T02:32:05;8.38;;;3.30;;
28838;SDS011;15971;50.772;6.100;2022-09-17T02:34:32;16.63;;;4.47;;
28838;SDS011;15971;50.772;6.100;2022-09-17T02:36:58;13.50;;;4.20;;
28838;SDS011;15971;50.772;6.100;2022-09-17T02:39:25;10.85;;;3.45;;
28838;SDS011;15971;50.772;6.100;2022-09-17T02:42:07;12.60;;;4.13;;
28838;SDS011;15971;50.772;6.100;2022-09-17T02:50:51;11.75;;;3.20;;
28838;SDS011;15971;50.772;6.100;2022-09-17T02:53:32;7.90;;;2.95;;
28838;SDS011;15971;50.772;6.100;2022-09-17T02:56:21;14.60;;;3.45;;
28838;SDS011;15971;50.772;6.100;2022-09-17T03:01:47;16.58;;;3.72;;
28838;SDS011;15971;50.772;6.100;2022-09-17T03:04:22;10.32;;;2.95;;
28838;SDS011;15971;50.772;6.100;2022-09-17T03:06:50;13.40;;;2.90;;
28838;SDS011;15971;50.772;6.100;2022-09-17T03:09:17;11.48;;;3.20;;
28838;SDS011;15971;50.772;6.100;2022-09-17T03:11:42;7.57;;;3.05;;
28838;SDS011;15971;50.772;6.100;2022-09-17T03:14:08;19.33;;;3.28;;
28838;SDS011;15971;50.772;6.100;2022-09-17T03:16:33;12.20;;;3.65;;
28838;SDS011;15971;50.772;6.100;2022-09-17T03:18:59;15.52;;;3.30;;
28838;SDS011;15971;50.772;6.100;2022-09-17T03:21:25;15.85;;;3.70;;
28838;SDS011;15971;50.772;6.100;2022-09-17T03:23:50;8.98;;;3.10;;
28838;SDS011;15971;50.772;6.100;2022-09-17T03:26:16;9.65;;;3.90;;
28838;SDS011;15971;50.772;6.100;2022-09-17T03:28:42;9.38;;;3.42;;
28838;SDS011;15971;50.772;6.100;2022-09-17T03:31:08;10.02;;;3.72;;
28838;SDS011;15971;50.772;6.100;2022-09-17T03:33:34;12.65;;;3.78;;
28838;SDS011;15971;50.772;6.100;2022-09-17T03:35:59;13.63;;;4.13;;
28838;SDS011;15971;50.772;6.100;2022-09-17T03:38:25;14.07;;;2.83;;
28838;SDS011;15971;50.772;6.100;2022-09-17T03:41:00;15.05;;;3.10;;
28838;SDS011;15971;50.772;6.100;2022-09-17T03:43:27;14.90;;;3.15;;
28838;SDS011;15971;50.772;6.100;2022-09-17T03:45:53;15.20;;;2.90;;
28838;SDS011;15971;50.772;6.100;2022-09-17T03:48:19;8.63;;;2.92;;
28838;SDS011;15971;50.772;6.100;2022-09-17T03:50:45;9.50;;;2.80;;
28838;SDS011;15971;50.772;6.100;2022-09-17T03:53:11;18.92;;;3.22;;
28838;SDS011;15971;50.772;6.100;2022-09-17T03:55:37;9.43;;;2.67;;
28838;SDS011;15971;50.772;6.100;2022-09-17T03:58:03;7.55;;;2.90;;
28838;SDS011;15971;50.772;6.100;2022-09-17T04:00:29;8.32;;;2.63;;
28838;SDS011;15971;50.772;6.100;2022-09-17T04:02:55;9.55;;;2.92;;
28838;SDS011;15971;50.772;6.100;2022-09-17T04:05:21;13.68;;;3.65;;
28838;SDS011;15971;50.772;6.100;2022-09-17T04:07:47;11.77;;;2.85;;
28838;SDS011;15971;50.772;6.100;2022-09-17T04:10:13;15.35;;;2.90;;
28838;SDS011;15971;50.772;6.100;2022-09-17T04:12:38;8.30;;;2.15;;
28838;SDS011;15971;50.772;6.100;2022-09-17T04:15:04;14.27;;;3.20;;
28838;SDS011;15971;50.772;6.100;2022-09-17T04:17:30;9.88;;;2.25;;
28838;SDS011;15971;50.772;6.100;2022-09-17T04:19:56;9.90;;;3.55;;
28838;SDS011;15971;50.772;6.100;2022-09-17T04:22:22;6.57;;;1.95;;
28838;SDS011;15971;50.772;6.100;2022-09-17T04:24:48;7.75;;;3.00;;
28838;SDS011;15971;50.772;6.100;2022-09-17T04:27:13;12.13;;;2.45;;
28838;SDS011;15971;50.772;6.100;2022-09-17T04:29:39;14.50;;;2.28;;
28838;SDS011;15971;50.772;6.100;2022-09-17T04:32:05;7.97;;;1.85;;
28838;SDS011;15971;50.772;6.100;2022-09-17T04:34:30;10.07;;;2.00;;
28838;SDS011;15971;50.772;6.100;2022-09-17T04:36:57;9.68;;;3.42;;
28838;SDS011;15971;50.772;6.100;2022-09-17T04:39:22;13.25;;;2.47;;
28838;SDS011;15971;50.772;6.100;2022-09-17T04:41:48;9.55;;;2.38;;
28838;SDS011;15971;50.772;6.100;2022-09-17T04:44:13;10.30;;;2.88;;
28838;SDS011;15971;50.772;6.100;2022-09-17T04:46:39;11.63;;;2.92;;
28838;SDS011;15971;50.772;6.100;2022-09-17T04:49:04;7.55;;;2.53;;
28838;SDS011;15971;50.772;6.100;2022-09-17T04:51:30;8.35;;;2.70;;
28838;SDS011;15971;50.772;6.100;2022-09-17T04:53:55;11.68;;;2.95;;
28838;SDS011;15971;50.772;6.100;2022-09-17T04:56:21;10.05;;;3.22;;
28838;SDS011;15971;50.772;6.100;2022-09-17T04:58:47;11.93;;;2.60;;
28838;SDS011;15971;50.772;6.100;2022-09-17T05:01:12;11.82;;;3.47;;
28838;SDS011;15971;50.772;6.100;2022-09-17T05:03:39;10.13;;;2.40;;
28838;SDS011;15971;50.772;6.100;2022-09-17T05:06:04;8.23;;;2.85;;
28838;SDS011;15971;50.772;6.100;2022-09-17T05:08:30;10.02;;;2.55;;
28838;SDS011;15971;50.772;6.100;2022-09-17T05:10:55;13.40;;;2.88;;
28838;SDS011;15971;50.772;6.100;2022-09-17T05:13:21;10.85;;;2.10;;
28838;SDS011;15971;50.772;6.100;2022-09-17T05:15:47;9.82;;;2.65;;
28838;SDS011;15971;50.772;6.100;2022-09-17T05:18:13;6.55;;;2.17;;
28838;SDS011;15971;50.772;6.100;2022-09-17T05:20:38;10.45;;;2.92;;
28838;SDS011;15971;50.772;6.100;2022-09-17T05:23:04;10.70;;;3.15;;
28838;SDS011;15971;50.772;6.100;2022-09-17T05:25:30;10.18;;;1.98;;
28838;SDS011;15971;50.772;6.100;2022-09-17T05:27:56;10.85;;;2.70;;
28838;SDS011;15971;50.772;6.100;2022-09-17T05:30:22;18.23;;;3.35;;
28838;SDS011;15971;50.772;6.100;2022-09-17T05:32:48;16.90;;;2.55;;
28838;SDS011;15971;50.772;6.100;2022-09-17T05:35:22;13.75;;;2.35;;
28838;SDS011;15971;50.772;6.100;2022-09-17T05:37:47;11.35;;;2.60;;
28838;SDS011;15971;50.772;6.100;2022-09-17T05:40:13;13.00;;;2.88;;
28838;SDS011;15971;50.772;6.100;2022-09-17T05:42:38;13.13;;;2.22;;
28838;SDS011;15971;50.772;6.100;2022-09-17T05:45:04;9.02;;;2.22;;
28838;SDS011;15971;50.772;6.100;2022-09-17T05:47:30;10.35;;;1.90;;
28838;SDS011;15971;50.772;6.100;2022-09-17T05:49:56;11.27;;;3.13;;
28838;SDS011;15971;50.772;6.100;2022-09-17T05:52:25;9.52;;;2.03;;
28838;SDS011;15971;50.772;6.100;2022-09-17T05:54:52;12.27;;;1.67;;
28838;SDS011;15971;50.772;6.100;2022-09-17T05:57:17;11.80;;;2.55;;
28838;SDS011;15971;50.772;6.100;2022-09-17T05:59:44;6.03;;;2.72;;
28838;SDS011;15971;50.772;6.100;2022-09-17T06:02:12;9.95;;;1.83;;
28838;SDS011;15971;50.772;6.100;2022-09-17T06:04:38;8.48;;;1.65;;
28838;SDS011;15971;50.772;6.100;2022-09-17T06:07:04;7.97;;;2.45;;
28838;SDS011;15971;50.772;6.100;2022-09-17T06:09:33;8.23;;;1.88;;
28838;SDS011;15971;50.772;6.100;2022-09-17T06:12:00;7.10;;;2.00;;
28838;SDS011;15971;50.772;6.100;2022-09-17T06:14:26;11.20;;;2.80;;
28838;SDS011;15971;50.772;6.100;2022-09-17T06:16:51;6.90;;;2.05;;
28838;SDS011;15971;50.772;6.100;2022-09-17T06:19:17;10.35;;;1.70;;
28838;SDS011;15971;50.772;6.100;2022-09-17T06:21:42;9.63;;;1.85;;
28838;SDS011;15971;50.772;6.100;2022-09-17T06:24:08;19.13;;;2.80;;
28838;SDS011;15971;50.772;6.100;2022-09-17T06:26:34;10.57;;;2.45;;
28838;SDS011;15971;50.772;6.100;2022-09-17T06:29:00;10.27;;;1.95;;
28838;SDS011;15971;50.772;6.100;2022-09-17T06:31:25;10.50;;;2.15;;
28838;SDS011;15971;50.772;6.100;2022-09-17T06:33:51;6.97;;;2.40;;
28838;SDS011;15971;50.772;6.100;2022-09-17T06:36:16;4.85;;;2.20;;
28838;SDS011;15971;50.772;6.100;2022-09-17T06:38:42;14.30;;;2.20;;
28838;SDS011;15971;50.772;6.100;2022-09-17T06:41:09;9.63;;;1.92;;
28838;SDS011;15971;50.772;6.100;2022-09-17T06:43:36;13.88;;;2.45;;
28838;SDS011;15971;50.772;6.100;2022-09-17T06:46:02;11.05;;;2.00;;
28838;SDS011;15971;50.772;6.100;2022-09-17T06:48:31;12.02;;;1.70;;
28838;SDS011;15971;50.772;6.100;2022-09-17T06:51:06;18.08;;;3.60;;
28838;SDS011;15971;50.772;6.100;2022-09-17T06:53:34;9.25;;;2.45;;
28838;SDS011;15971;50.772;6.100;2022-09-17T06:56:02;9.57;;;1.85;;
28838;SDS011;15971;50.772;6.100;2022-09-17T06:58:29;10.07;;;2.28;;
28838;SDS011;15971;50.772;6.100;2022-09-17T07:00:58;11.40;;;2.67;;
28838;SDS011;15971;50.772;6.100;2022-09-17T07:03:25;12.85;;;2.28;;
28838;SDS011;15971;50.772;6.100;2022-09-17T07:05:51;16.90;;;3.20;;
28838;SDS011;15971;50.772;6.100;2022-09-17T07:08:17;13.32;;;2.75;;
28838;SDS011;15971;50.772;6.100;2022-09-17T07:10:42;13.32;;;2.78;;
28838;SDS011;15971;50.772;6.100;2022-09-17T07:13:08;13.18;;;2.35;;
28838;SDS011;15971;50.772;6.100;2022-09-17T07:15:33;17.70;;;2.33;;
28838;SDS011;15971;50.772;6.100;2022-09-17T07:17:59;9.43;;;3.10;;
28838;SDS011;15971;50.772;6.100;2022-09-17T07:20:31;14.65;;;2.75;;
28838;SDS011;15971;50.772;6.100;2022-09-17T07:22:56;14.77;;;2.67;;
28838;SDS011;15971;50.772;6.100;2022-09-17T07:25:23;6.47;;;2.20;;
28838;SDS011;15971;50.772;6.100;2022-09-17T07:27:49;15.13;;;3.47;;
28838;SDS011;15971;50.772;6.100;2022-09-17T07:30:15;14.25;;;1.95;;
28838;SDS011;15971;50.772;6.100;2022-09-17T07:32:41;17.50;;;3.25;;
28838;SDS011;15971;50.772;6.100;2022-09-17T07:35:06;17.33;;;2.95;;
28838;SDS011;15971;50.772;6.100;2022-09-17T07:37:32;12.55;;;3.33;;
28838;SDS011;15971;50.772;6.100;2022-09-17T07:39:58;11.95;;;2.78;;
28838;SDS011;15971;50.772;6.100;2022-09-17T07:42:24;12.93;;;2.60;;
28838;SDS011;15971;50.772;6.100;2022-09-17T07:44:51;23.10;;;2.90;;
28838;SDS011;15971;50.772;6.100;2022-09-17T07:47:17;7.47;;;2.08;;
28838;SDS011;15971;50.772;6.100;2022-09-17T07:49:43;12.85;;;2.53;;
28838;SDS011;15971;50.772;6.100;2022-09-17T07:52:09;15.50;;;2.60;;
28838;SDS011;15971;50.772;6.100;2022-09-17T07:54:35;11.90;;;2.28;;
28838;SDS011;15971;50.772;6.100;2022-09-17T07:57:03;10.35;;;2.47;;
28838;SDS011;15971;50.772;6.100;2022-09-17T07:59:29;12.40;;;2.47;;
28838;SDS011;15971;50.772;6.100;2022-09-17T08:01:55;10.93;;;2.92;;
28838;SDS011;15971;50.772;6.100;2022-09-17T08:04:20;13.93;;;3.35;;
28838;SDS011;15971;50.772;6.100;2022-09-17T08:06:46;16.80;;;2.20;;
28838;SDS011;15971;50.772;6.100;2022-09-17T08:09:13;10.90;;;2.28;;
28838;SDS011;15971;50.772;6.100;2022-09-17T08:11:40;15.20;;;2.50;;
28838;SDS011;15971;50.772;6.100;2022-09-17T08:14:06;10.55;;;2.60;;
28838;SDS011;15971;50.772;6.100;2022-09-17T08:16:34;12.27;;;2.00;;
28838;SDS011;15971;50.772;6.100;2022-09-17T08:19:00;12.48;;;2.25;;
28838;SDS011;15971;50.772;6.100;2022-09-17T08:21:26;11.32;;;2.20;;
28838;SDS011;15971;50.772;6.100;2022-09-17T08:23:51;11.10;;;2.40;;
28838;SDS011;15971;50.772;6.100;2022-09-17T08:26:18;8.48;;;1.83;;
28838;SDS011;15971;50.772;6.100;2022-09-17T08:28:47;9.38;;;1.90;;
28838;SDS011;15971;50.772;6.100;2022-09-17T08:31:19;11.82;;;2.10;;
28838;SDS011;15971;50.772;6.100;2022-09-17T08:33:46;9.77;;;1.95;;
28838;SDS011;15971;50.772;6.100;2022-09-17T08:36:12;13.32;;;1.83;;
28838;SDS011;15971;50.772;6.100;2022-09-17T08:38:40;13.98;;;2.05;;
28838;SDS011;15971;50.772;6.100;2022-09-17T08:43:40;12.90;;;2.65;;
28838;SDS011;15971;50.772;6.100;2022-09-17T08:46:13;7.85;;;1.45;;
28838;SDS011;15971;50.772;6.100;2022-09-17T08:48:43;16.10;;;2.25;;
28838;SDS011;15971;50.772;6.100;2022-09-17T08:53:57;10.57;;;2.95;;
28838;SDS011;15971;50.772;6.100;2022-09-17T08:56:32;16.60;;;1.52;;
28838;SDS011;15971;50.772;6.100;2022-09-17T08:59:06;7.38;;;1.38;;
28838;SDS011;15971;50.772;6.100;2022-09-17T09:01:56;10.35;;;1.65;;
28838;SDS011;15971;50.772;6.100;2022-09-17T09:04:43;7.18;;;1.85;;
28838;SDS011;15971;50.772;6.100;2022-09-17T09:07:16;13.48;;;2.08;;
28838;SDS011;15971;50.772;6.100;2022-09-17T09:09:47;20.45;;;2.47;;
28838;SDS011;15971;50.772;6.100;2022-09-17T09:12:23;8.27;;;2.10;;
28838;SDS011;15971;50.772;6.100;2022-09-17T09:14:56;8.88;;;1.60;;
28838;SDS011;15971;50.772;6.100;2022-09-17T09:17:26;9.65;;;2.20;;
28838;SDS011;15971;50.772;6.100;2022-09-17T09:19:59;12.35;;;2.03;;
28838;SDS011;15971;50.772;6.100;2022-09-17T09:22:29;8.98;;;1.88;;
28838;SDS011;15971;50.772;6.100;2022-09-17T09:25:02;13.73;;;2.30;;
28838;SDS011;15971;50.772;6.100;2022-09-17T09:27:42;12.13;;;2.88;;
28838;SDS011;15971;50.772;6.100;2022-09-17T09:30:37;14.98;;;2.00;;
28838;SDS011;15971;50.772;6.100;2022-09-17T09:33:16;6.07;;;1.40;;
28838;SDS011;15971;50.772;6.100;2022-09-17T09:35:48;10.77;;;2.08;;
28838;SDS011;15971;50.772;6.100;2022-09-17T09:38:17;10.68;;;1.98;;
28838;SDS011;15971;50.772;6.100;2022-09-17T09:43:31;8.50;;;1.40;;
28838;SDS011;15971;50.772;6.100;2022-09-17T09:57:00;10.02;;;1.15;;
28838;SDS011;15971;50.772;6.100;2022-09-17T09:59:31;9.88;;;2.17;;
28838;SDS011;15971;50.772;6.100;2022-09-17T10:01:57;4.22;;;1.08;;
28838;SDS011;15971;50.772;6.100;2022-09-17T10:04:24;6.32;;;1.42;;
28838;SDS011;15971;50.772;6.100;2022-09-17T10:06:52;4.28;;;1.27;;
28838;SDS011;15971;50.772;6.100;2022-09-17T10:14:38;9.40;;;1.77;;
28838;SDS011;15971;50.772;6.100;2022-09-17T10:17:13;6.82;;;1.33;;
28838;SDS011;15971;50.772;6.100;2022-09-17T10:22:33;10.80;;;1.50;;
28838;SDS011;15971;50.772;6.100;2022-09-17T10:25:00;10.50;;;2.08;;
28838;SDS011;15971;50.772;6.100;2022-09-17T10:27:29;10.18;;;1.50;;
28838;SDS011;15971;50.772;6.100;2022-09-17T10:32:32;5.10;;;1.58;;
28838;SDS011;15971;50.772;6.100;2022-09-17T10:42:50;5.32;;;2.35;;
28838;SDS011;15971;50.772;6.100;2022-09-17T10:45:35;10.85;;;2.65;;
28838;SDS011;15971;50.772;6.100;2022-09-17T10:48:03;8.98;;;1.05;;
28838;SDS011;15971;50.772;6.100;2022-09-17T10:50:29;4.50;;;0.90;;
28838;SDS011;15971;50.772;6.100;2022-09-17T10:53:06;5.97;;;2.33;;
28838;SDS011;15971;50.772;6.100;2022-09-17T10:55:42;4.53;;;1.30;;
28838;SDS011;15971;50.772;6.100;2022-09-17T11:04:19;3.83;;;0.85;;
28838;SDS011;15971;50.772;6.100;2022-09-17T11:09:46;4.32;;;1.23;;
28838;SDS011;15971;50.772;6.100;2022-09-17T11:12:33;7.45;;;1.30;;
28838;SDS011;15971;50.772;6.100;2022-09-17T11:15:02;16.13;;;4.55;;
28838;SDS011;15971;50.772;6.100;2022-09-17T11:17:50;5.70;;;1.80;;
28838;SDS011;15971;50.772;6.100;2022-09-17T11:25:49;8.65;;;0.88;;
28838;SDS011;15971;50.772;6.100;2022-09-17T11:39:13;7.90;;;1.35;;
28838;SDS011;15971;50.772;6.100;2022-09-17T11:41:46;6.88;;;1.40;;
28838;SDS011;15971;50.772;6.100;2022-09-17T11:44:26;9.02;;;2.30;;
28838;SDS011;15971;50.772;6.100;2022-09-17T11:47:06;7.97;;;1.50;;
28838;SDS011;15971;50.772;6.100;2022-09-17T11:49:38;4.75;;;0.98;;
28838;SDS011;15971;50.772;6.100;2022-09-17T11:52:28;7.95;;;1.38;;
28838;SDS011;15971;50.772;6.100;2022-09-17T11:54:59;5.75;;;1.20;;
28838;SDS011;15971;50.772;6.100;2022-09-17T11:57:51;3.75;;;0.98;;
28838;SDS011;15971;50.772;6.100;2022-09-17T12:00:24;7.88;;;1.80;;
28838;SDS011;15971;50.772;6.100;2022-09-17T12:02:58;7.22;;;0.90;;
28838;SDS011;15971;50.772;6.100;2022-09-17T12:05:26;7.65;;;1.73;;
28838;SDS011;15971;50.772;6.100;2022-09-17T12:07:59;3.83;;;1.30;;
28838;SDS011;15971;50.772;6.100;2022-09-17T12:10:33;2.30;;;0.85;;
28838;SDS011;15971;50.772;6.100;2022-09-17T12:13:29;5.72;;;1.40;;
28838;SDS011;15971;50.772;6.100;2022-09-17T12:18:43;4.00;;;0.88;;
28838;SDS011;15971;50.772;6.100;2022-09-17T12:21:24;3.75;;;0.90;;
28838;SDS011;15971;50.772;6.100;2022-09-17T12:35:31;4.97;;;1.25;;
28838;SDS011;15971;50.772;6.100;2022-09-17T12:46:17;5.97;;;1.33;;
28838;SDS011;15971;50.772;6.100;2022-09-17T12:52:14;7.25;;;1.10;;
28838;SDS011;15971;50.772;6.100;2022-09-17T13:00:43;17.67;;;3.42;;
28838;SDS011;15971;50.772;6.100;2022-09-17T13:20:02;12.02;;;4.20;;
28838;SDS011;15971;50.772;6.100;2022-09-17T13:22:45;6.15;;;2.10;;
28838;SDS011;15971;50.772;6.100;2022-09-17T13:25:14;5.68;;;2.10;;
28838;SDS011;15971;50.772;6.100;2022-09-17T13:27:42;7.82;;;2.10;;
28838;SDS011;15971;50.772;6.100;2022-09-17T13:30:12;11.45;;;3.33;;
28838;SDS011;15971;50.772;6.100;2022-09-17T13:37:30;17.02;;;5.22;;
28838;SDS011;15971;50.772;6.100;2022-09-17T13:39:59;7.63;;;2.20;;
28838;SDS011;15971;50.772;6.100;2022-09-17T13:42:30;6.50;;;2.40;;
28838;SDS011;15971;50.772;6.100;2022-09-17T13:45:11;6.00;;;1.98;;
28838;SDS011;15971;50.772;6.100;2022-09-17T13:47:51;7.18;;;2.00;;
28838;SDS011;15971;50.772;6.100;2022-09-17T13:55:42;3.75;;;1.30;;
28838;SDS011;15971;50.772;6.100;2022-09-17T14:00:52;4.55;;;1.10;;
28838;SDS011;15971;50.772;6.100;2022-09-17T14:37:57;2.95;;;0.93;;
28838;SDS011;15971;50.772;6.100;2022-09-17T14:43:14;13.10;;;1.08;;
28838;SDS011;15971;50.772;6.100;2022-09-17T14:45:51;5.03;;;1.20;;
28838;SDS011;15971;50.772;6.100;2022-09-17T14:48:23;6.05;;;1.10;;
28838;SDS011;15971;50.772;6.100;2022-09-17T14:50:50;3.92;;;1.08;;
28838;SDS011;15971;50.772;6.100;2022-09-17T14:53:17;9.13;;;1.10;;
28838;SDS011;15971;50.772;6.100;2022-09-17T14:55:47;6.10;;;1.30;;
28838;SDS011;15971;50.772;6.100;2022-09-17T14:58:26;5.25;;;1.02;;
28838;SDS011;15971;50.772;6.100;2022-09-17T15:00:59;8.73;;;1.40;;
28838;SDS011;15971;50.772;6.100;2022-09-17T15:03:25;5.60;;;1.00;;
28838;SDS011;15971;50.772;6.100;2022-09-17T15:05:51;5.47;;;1.40;;
28838;SDS011;15971;50.772;6.100;2022-09-17T15:08:18;7.72;;;1.35;;
28838;SDS011;15971;50.772;6.100;2022-09-17T15:13:22;16.58;;;1.67;;
28838;SDS011;15971;50.772;6.100;2022-09-17T15:16:01;6.78;;;1.15;;
28838;SDS011;15971;50.772;6.100;2022-09-17T15:18:39;6.50;;;1.27;;
28838;SDS011;15971;50.772;6.100;2022-09-17T15:23:47;5.65;;;1.52;;
28838;SDS011;15971;50.772;6.100;2022-09-17T15:26:19;4.40;;;1.10;;
28838;SDS011;15971;50.772;6.100;2022-09-17T15:28:48;6.57;;;1.05;;
28838;SDS011;15971;50.772;6.100;2022-09-17T15:31:17;6.10;;;1.30;;
28838;SDS011;15971;50.772;6.100;2022-09-17T15:33:44;6.72;;;1.50;;
28838;SDS011;15971;50.772;6.100;2022-09-17T15:36:24;6.57;;;1.33;;
28838;SDS011;15971;50.772;6.100;2022-09-17T15:38:51;6.93;;;1.63;;
28838;SDS011;15971;50.772;6.100;2022-09-17T15:43:53;10.23;;;1.67;;
28838;SDS011;15971;50.772;6.100;2022-09-17T15:46:22;7.03;;;1.98;;
28838;SDS011;15971;50.772;6.100;2022-09-17T15:48:53;5.63;;;1.50;;
28838;SDS011;15971;50.772;6.100;2022-09-17T15:51:24;17.75;;;1.70;;
28838;SDS011;15971;50.772;6.100;2022-09-17T15:53:51;8.35;;;1.40;;
28838;SDS011;15971;50.772;6.100;2022-09-17T15:56:23;12.25;;;2.28;;
28838;SDS011;15971;50.772;6.100;2022-09-17T15:58:53;6.60;;;1.52;;
28838;SDS011;15971;50.772;6.100;2022-09-17T16:08:54;14.48;;;2.05;;
28838;SDS011;15971;50.772;6.100;2022-09-17T16:11:22;7.13;;;1.55;;
28838;SDS011;15971;50.772;6.100;2022-09-17T16:13:49;11.52;;;1.80;;
28838;SDS011;15971;50.772;6.100;2022-09-17T16:16:22;8.57;;;1.55;;
28838;SDS011;15971;50.772;6.100;2022-09-17T16:18:51;6.65;;;1.30;;
28838;SDS011;15971;50.772;6.100;2022-09-17T16:21:17;7.55;;;1.73;;
28838;SDS011;15971;50.772;6.100;2022-09-17T16:23:43;10.15;;;2.38;;
28838;SDS011;15971;50.772;6.100;2022-09-17T16:26:11;9.55;;;1.80;;
28838;SDS011;15971;50.772;6.100;2022-09-17T16:28:40;9.38;;;1.50;;
28838;SDS011;15971;50.772;6.100;2022-09-17T16:31:07;10.48;;;1.70;;
28838;SDS011;15971;50.772;6.100;2022-09-17T16:33:36;4.70;;;1.80;;
28838;SDS011;15971;50.772;6.100;2022-09-17T16:36:02;9.57;;;2.40;;
28838;SDS011;15971;50.772;6.100;2022-09-17T16:38:28;13.70;;;2.25;;
28838;SDS011;15971;50.772;6.100;2022-09-17T16:40:54;11.27;;;2.28;;
28838;SDS011;15971;50.772;6.100;2022-09-17T16:43:19;10.23;;;2.00;;
28838;SDS011;15971;50.772;6.100;2022-09-17T16:46:02;6.93;;;2.03;;
28838;SDS011;15971;50.772;6.100;2022-09-17T16:48:30;12.65;;;2.05;;
28838;SDS011;15971;50.772;6.100;2022-09-17T16:50:56;8.93;;;2.80;;
28838;SDS011;15971;50.772;6.100;2022-09-17T16:53:22;12.57;;;3.50;;
28838;SDS011;15971;50.772;6.100;2022-09-17T16:55:48;10.07;;;1.75;;
28838;SDS011;15971;50.772;6.100;2022-09-17T16:58:14;11.20;;;3.10;;
28838;SDS011;15971;50.772;6.100;2022-09-17T17:00:43;22.83;;;7.40;;
28838;SDS011;15971;50.772;6.100;2022-09-17T17:03:12;17.50;;;6.40;;
28838;SDS011;15971;50.772;6.100;2022-09-17T17:05:39;11.27;;;3.42;;
28838;SDS011;15971;50.772;6.100;2022-09-17T17:08:05;11.45;;;2.70;;
28838;SDS011;15971;50.772;6.100;2022-09-17T17:10:31;7.50;;;2.58;;
28838;SDS011;15971;50.772;6.100;2022-09-17T17:12:57;4.57;;;1.30;;
28838;SDS011;15971;50.772;6.100;2022-09-17T17:15:23;4.15;;;1.50;;
28838;SDS011;15971;50.772;6.100;2022-09-17T17:17:49;12.45;;;2.78;;
28838;SDS011;15971;50.772;6.100;2022-09-17T17:20:15;6.82;;;1.77;;
28838;SDS011;15971;50.772;6.100;2022-09-17T17:22:41;9.25;;;1.65;;
28838;SDS011;15971;50.772;6.100;2022-09-17T17:25:07;6.68;;;1.90;;
28838;SDS011;15971;50.772;6.100;2022-09-17T17:27:34;6.63;;;1.92;;
28838;SDS011;15971;50.772;6.100;2022-09-17T17:30:01;7.95;;;1.65;;
28838;SDS011;15971;50.772;6.100;2022-09-17T17:32:30;10.27;;;2.20;;
28838;SDS011;15971;50.772;6.100;2022-09-17T17:34:56;12.38;;;2.70;;
28838;SDS011;15971;50.772;6.100;2022-09-17T17:37:22;11.98;;;2.17;;
28838;SDS011;15971;50.772;6.100;2022-09-17T17:39:48;12.95;;;2.67;;
28838;SDS011;15971;50.772;6.100;2022-09-17T17:42:13;9.27;;;3.38;;
28838;SDS011;15971;50.772;6.100;2022-09-17T17:44:39;9.88;;;1.70;;
28838;SDS011;15971;50.772;6.100;2022-09-17T17:47:05;10.20;;;2.60;;
28838;SDS011;15971;50.772;6.100;2022-09-17T17:49:31;11.93;;;1.88;;
28838;SDS011;15971;50.772;6.100;2022-09-17T17:51:57;11.52;;;2.10;;
28838;SDS011;15971;50.772;6.100;2022-09-17T17:54:23;14.25;;;3.08;;
28838;SDS011;15971;50.772;6.100;2022-09-17T17:56:49;12.80;;;2.38;;
28838;SDS011;15971;50.772;6.100;2022-09-17T17:59:14;9.65;;;2.05;;
28838;SDS011;15971;50.772;6.100;2022-09-17T18:01:40;12.27;;;2.78;;
28838;SDS011;15971;50.772;6.100;2022-09-17T18:04:06;13.60;;;3.00;;
28838;SDS011;15971;50.772;6.100;2022-09-17T18:06:32;11.05;;;2.80;;
28838;SDS011;15971;50.772;6.100;2022-09-17T18:08:58;5.00;;;1.58;;
28838;SDS011;15971;50.772;6.100;2022-09-17T18:11:25;14.88;;;2.42;;
28838;SDS011;15971;50.772;6.100;2022-09-17T18:13:52;12.07;;;2.78;;
28838;SDS011;15971;50.772;6.100;2022-09-17T18:16:19;10.07;;;2.20;;
28838;SDS011;15971;50.772;6.100;2022-09-17T18:18:45;10.25;;;2.05;;
28838;SDS011;15971;50.772;6.100;2022-09-17T18:21:16;6.78;;;2.42;;